05PS weather

Mills Brothers Airport
Burnt Cabins, Pennsylvania, United States

Public forecast

Using degrees Fahrenheit for public forecast. Weather courtesy of forecast.io.

METAR (pilot weather report)

Closest report is Altoona Blair County Airport, 22.9 nm (42.5 km) WNW. Retrieved 2019/05/24 04:53 UTC (33 minutes ago):

KAOO 240453Z AUTO 31011G19KT 3SM -RA BR FEW022 BKN050 OVC095 21/18 A2998 RMK AO2 WSHFT 0432 RAB36 SLP143 P0010 T02060183 402780150

TAF (pilot weather forecast)

Forecast is more than 12 hours old.

Closest forecast is Altoona Blair County Airport, 22.9 nm (42.5 km) WNW. Retrieved 2019/05/23 00:33 UTC (1 day ago):

TAF KAOO 232329Z 2400/2424 26012G24KT P6SM VCSH SCT045 FM240400 29008KT P6SM SCT250 FM241400 31012G20KT P6SM SCT050